Cathma — PJTL — position and weather

sailwx.info

Track history (hours):
 
Tides and Currents Weather Stations Pressure Air Temp Water Temp Dewpoint Dewpoint Depression Visibility Wind Speed Wind Dir Waves Ship Positions

Cathma

Last reported at 2014-Oct-12 15:04 UTC. Time now 2014-Oct-21 05:27 UTC.
Position N 57°24' E 017°46'.
Warning: this ship's position is 8 days out of date.

Length 111 m; draft 6.6 m.

Type: Ship. MMSI: 306832000.

Date/timePositionNaut miles runAvg speedWind from/ knotsBaromVisibWave heightAir tempDewpointWater temp
2014-Oct-12 15:04N 57°24' E 017°46'611.4
2014-Oct-12 14:32N 57°19' E 017°42'1111.3
2014-Oct-12 13:32N 57°08' E 017°34'15310.2
2014-Oct-11 22:33N 55°16' E 014°29'1111.1
2014-Oct-11 21:33N 55°07' E 014°17'5510.8
2014-Oct-11 16:27N 54°44' E 012°50'1010.9
2014-Oct-11 15:32N 54°38' E 012°35'1010.7
2014-Oct-11 14:33N 54°32' E 012°21'1110.7
2014-Oct-11 13:33N 54°24' E 012°09'1111.2
2014-Oct-11 12:32N 54°24' E 011°49'3510.5
2014-Oct-11 09:14N 54°34' E 010°52'710.6
2014-Oct-11 08:33N 54°34' E 010°40'1110.7
2014-Oct-11 07:34N 54°31' E 010°22'10 9.9
2014-Oct-11 06:34N 54°23' E 010°12'2 2.0
2014-Oct-11 05:34N 54°22' E 010°09'0 0.5
2014-Oct-11 04:34N 54°22' E 010°08'3 3.4
2014-Oct-11 03:34N 54°22' E 010°02'5 5.2
2014-Oct-11 02:33N 54°21' E 009°53'4 4.5
2014-Oct-11 01:34N 54°21' E 009°45'6 6.4
2014-Oct-11 00:33N 54°16' E 009°38'5 5.2
2014-Oct-10 23:34N 54°12' E 009°33'16 5.4
2014-Oct-10 20:29N 53°58' E 009°16'6 6.9
2014-Oct-10 19:33N 53°54' E 009°09'1 1.5
2014-Oct-10 18:33N 53°53' E 009°07'7 6.6
2014-Oct-10 17:33N 53°51' E 008°56'7 7.3
2014-Oct-10 16:33N 53°52' E 008°44'8 7.7
2014-Oct-10 15:33N 53°58' E 008°35'9 8.8
2014-Oct-10 14:33N 53°59' E 008°21'10 9.8
2014-Oct-10 13:33N 53°59' E 008°04'7311.7
2014-Oct-10 07:18N 53°41' E 006°04'911.9
2014-Oct-10 06:33N 53°38' E 005°50'1212.0
2014-Oct-10 05:33N 53°34' E 005°31'1212.0
2014-Oct-10 04:33N 53°30' E 005°11'1111.2
2014-Oct-10 03:34N 53°26' E 004°54'10 9.6
2014-Oct-10 02:33N 53°21' E 004°41'48 9.3
2014-Oct-09 21:27N 52°39' E 004°03'17 8.8
2014-Oct-09 19:33N 52°24' E 003°53'9 9.3
2014-Oct-09 18:33N 52°14' E 003°53'1010.1
2014-Oct-09 17:33N 52°04' E 003°54'9 9.1
2014-Oct-09 16:33N 51°59' E 004°06'1010.0
2014-Oct-09 15:33N 51°54' E 004°20'3 3.0
2014-Oct-09 14:29N 51°53' E 004°25'0 0.0
2014-Oct-09 13:31N 51°53' E 004°25'0 0.0
2014-Oct-09 12:31N 51°53' E 004°25'0 0.0
2014-Oct-09 11:31N 51°53' E 004°25'0 0.0
2014-Oct-09 10:33N 51°53' E 004°25'0 0.0
2014-Oct-09 09:30N 51°53' E 004°25'0 0.0
2014-Oct-09 08:32N 51°53' E 004°25'0 0.0
2014-Oct-09 07:29N 51°53' E 004°25'0 0.0
2014-Oct-09 06:29N 51°53' E 004°25'0 0.0
2014-Oct-09 05:28N 51°53' E 004°25'0 0.0
2014-Oct-09 04:28N 51°53' E 004°25'0 0.2
2014-Oct-09 03:33N 51°53' E 004°25'0 0.0
2014-Oct-09 02:29N 51°53' E 004°25'0 0.0
2014-Oct-09 01:32N 51°53' E 004°25'0 0.0
2014-Oct-09 00:29N 51°53' E 004°25'0 0.0
2014-Oct-08 23:31N 51°53' E 004°25'0 0.0
2014-Oct-08 22:16N 51°53' E 004°25'0 0.0
2014-Oct-08 21:31N 51°53' E 004°25'0 0.0
2014-Oct-08 20:27N 51°53' E 004°25'0 0.0
2014-Oct-08 19:24N 51°53' E 004°25'0 0.0
2014-Oct-08 18:26N 51°53' E 004°25'0 0.0
2014-Oct-08 17:32N 51°53' E 004°25'0 0.0
2014-Oct-08 16:31N 51°53' E 004°25'0 0.0
2014-Oct-08 15:31N 51°53' E 004°25'0 0.0
2014-Oct-08 14:33N 51°53' E 004°25'8 8.3
2014-Oct-08 13:33N 51°56' E 004°12'1212.0
2014-Oct-08 12:33N 52°00' E 003°54'26 3.2
2014-Oct-08 04:30N 51°46' E 003°20'0 0.0
2014-Oct-08 02:32N 51°46' E 003°20'0 0.0
2014-Oct-08 00:22N 51°46' E 003°20'0 0.0
2014-Oct-07 22:21N 51°46' E 003°20'0 0.0
2014-Oct-07 21:33N 51°46' E 003°20'0 0.0
2014-Oct-07 19:29N 51°46' E 003°20'0 0.1
2014-Oct-07 18:23N 51°46' E 003°20'0 0.0
2014-Oct-07 17:10N 51°46' E 003°20'0 0.0
2014-Oct-07 16:25N 51°46' E 003°20'0 0.0
2014-Oct-07 14:33N 51°46' E 003°20'0 0.0
2014-Oct-07 09:04N 51°46' E 003°20'0 0.0
2014-Oct-07 08:33N 51°46' E 003°20'0 0.1
2014-Oct-07 07:33N 51°46' E 003°20'0 0.0
2014-Oct-07 06:33N 51°46' E 003°20'0 0.1
2014-Oct-07 05:32N 51°46' E 003°20'0 0.0
2014-Oct-07 04:32N 51°46' E 003°20'0 0.0
2014-Oct-07 03:22N 51°46' E 003°20'0 0.0
2014-Oct-06 20:13N 51°46' E 003°20'0 0.0
2014-Oct-06 07:28N 51°46' E 003°20'0 0.0
2014-Oct-06 00:19N 51°46' E 003°20'0 0.0
2014-Oct-05 23:31N 51°46' E 003°20'34 2.0
2014-Oct-05 06:33N 51°38' E 002°27'1010.4
2014-Oct-05 05:33N 51°30' E 002°15'9 8.6
2014-Oct-05 04:33N 51°24' E 002°06'8 8.5
2014-Oct-05 03:34N 51°18' E 001°56'8 8.2
2014-Oct-05 02:33N 51°12' E 001°48'8 8.3
2014-Oct-05 01:33N 51°05' E 001°40'9 9.0
2014-Oct-05 00:34N 50°58' E 001°32'48 9.4
2014-Oct-04 19:27N 50°24' E 000°38'5210.5
2014-Oct-04 14:30N 49°41' W 000°09'9 9.3
2014-Oct-04 13:33N 49°33' W 000°12'4 3.0
2014-Oct-04 12:17N 49°29' W 000°09'0 0.0
2014-Oct-04 11:32N 49°29' W 000°10'0 0.0
2014-Oct-04 10:28N 49°29' W 000°10'0 0.0
2014-Oct-04 09:04N 49°29' W 000°10'0 0.0
2014-Oct-04 08:22N 49°29' W 000°09'0 0.0
2014-Oct-04 07:27N 49°29' W 000°09'0 0.0
2014-Oct-04 06:09N 49°29' W 000°09'0 0.0
2014-Oct-04 05:11N 49°29' W 000°09'0 0.0
2014-Oct-04 04:29N 49°29' W 000°09'0 0.0
2014-Oct-04 03:10N 49°29' W 000°09'0 0.0
2014-Oct-04 02:31N 49°29' W 000°09'0 0.0
2014-Oct-04 01:06N 49°29' W 000°10'0 0.0
2014-Oct-04 00:33N 49°29' W 000°10'0 0.0
2014-Oct-03 22:29N 49°29' W 000°10'0 0.0
2014-Oct-03 21:29N 49°29' W 000°10'0 0.0
2014-Oct-03 18:28N 49°29' W 000°10'0 0.0
2014-Oct-03 17:33N 49°29' W 000°10'0 0.0
2014-Oct-03 16:33N 49°29' W 000°10'0 0.0
2014-Oct-03 15:32N 49°29' W 000°10'0 0.0
2014-Oct-03 14:32N 49°29' W 000°10'0 0.0
2014-Oct-03 13:25N 49°29' W 000°10'0 0.0
2014-Oct-03 12:31N 49°29' W 000°10'0 0.0
2014-Oct-03 11:31N 49°29' W 000°10'0 0.0
2014-Oct-03 10:30N 49°29' W 000°10'0 0.0
2014-Oct-03 09:33N 49°29' W 000°10'0 0.0
2014-Oct-03 08:29N 49°29' W 000°10'0 0.0
2014-Oct-03 07:32N 49°29' W 000°10'0 0.0
2014-Oct-03 06:28N 49°29' W 000°10'0 0.0
2014-Oct-03 05:28N 49°29' W 000°09'0 0.0
2014-Oct-03 04:34N 49°29' W 000°09'0 0.0
2014-Oct-03 03:33N 49°29' W 000°09'0 0.0
2014-Oct-03 02:33N 49°29' W 000°09'0 0.0
2014-Oct-03 01:32N 49°29' W 000°10'0 0.0
2014-Oct-03 00:32N 49°29' W 000°10'0 0.0
2014-Oct-02 23:31N 49°29' W 000°10'0 0.0
2014-Oct-02 22:31N 49°29' W 000°10'0 0.0
2014-Oct-02 21:30N 49°29' W 000°10'0 0.0
2014-Oct-02 20:21N 49°29' W 000°10'0 0.0
2014-Oct-02 19:30N 49°29' W 000°10'0 0.0
2014-Oct-02 18:32N 49°29' W 000°10'0 0.0
2014-Oct-02 17:32N 49°29' W 000°10'0 0.0
2014-Oct-02 16:31N 49°29' W 000°10'0 0.0
2014-Oct-02 15:22N 49°29' W 000°10'  
Track history (hours):
 
Tides and Currents Weather Stations Pressure Air Temp Water Temp Dewpoint Dewpoint Depression Visibility Wind Speed Wind Dir Waves Ship Positions

Cathma

Last reported at 2014-Oct-12 15:04 UTC. Time now 2014-Oct-21 05:27 UTC.
Position N 57°24' E 017°46'.
Warning: this ship's position is 8 days out of date.

Length 111 m; draft 6.6 m.

Type: Ship. MMSI: 306832000.

Date/timePositionNaut miles runAvg speedWind from/ knotsBaromVisibWave heightAir tempDewpointWater temp
2014-Oct-12 15:04N 57°24' E 017°46'611.4
2014-Oct-12 14:32N 57°19' E 017°42'1111.3
2014-Oct-12 13:32N 57°08' E 017°34'15310.2
2014-Oct-11 22:33N 55°16' E 014°29'1111.1
2014-Oct-11 21:33N 55°07' E 014°17'5510.8
2014-Oct-11 16:27N 54°44' E 012°50'1010.9
2014-Oct-11 15:32N 54°38' E 012°35'1010.7
2014-Oct-11 14:33N 54°32' E 012°21'1110.7
2014-Oct-11 13:33N 54°24' E 012°09'1111.2
2014-Oct-11 12:32N 54°24' E 011°49'3510.5
2014-Oct-11 09:14N 54°34' E 010°52'710.6
2014-Oct-11 08:33N 54°34' E 010°40'1110.7
2014-Oct-11 07:34N 54°31' E 010°22'10 9.9
2014-Oct-11 06:34N 54°23' E 010°12'2 2.0
2014-Oct-11 05:34N 54°22' E 010°09'0 0.5
2014-Oct-11 04:34N 54°22' E 010°08'3 3.4
2014-Oct-11 03:34N 54°22' E 010°02'5 5.2
2014-Oct-11 02:33N 54°21' E 009°53'4 4.5
2014-Oct-11 01:34N 54°21' E 009°45'6 6.4
2014-Oct-11 00:33N 54°16' E 009°38'5 5.2
2014-Oct-10 23:34N 54°12' E 009°33'16 5.4
2014-Oct-10 20:29N 53°58' E 009°16'6 6.9
2014-Oct-10 19:33N 53°54' E 009°09'1 1.5
2014-Oct-10 18:33N 53°53' E 009°07'7 6.6
2014-Oct-10 17:33N 53°51' E 008°56'7 7.3
2014-Oct-10 16:33N 53°52' E 008°44'8 7.7
2014-Oct-10 15:33N 53°58' E 008°35'9 8.8
2014-Oct-10 14:33N 53°59' E 008°21'10 9.8
2014-Oct-10 13:33N 53°59' E 008°04'7311.7
2014-Oct-10 07:18N 53°41' E 006°04'911.9
2014-Oct-10 06:33N 53°38' E 005°50'1212.0
2014-Oct-10 05:33N 53°34' E 005°31'1212.0
2014-Oct-10 04:33N 53°30' E 005°11'1111.2
2014-Oct-10 03:34N 53°26' E 004°54'10 9.6
2014-Oct-10 02:33N 53°21' E 004°41'48 9.3
2014-Oct-09 21:27N 52°39' E 004°03'17 8.8
2014-Oct-09 19:33N 52°24' E 003°53'9 9.3
2014-Oct-09 18:33N 52°14' E 003°53'1010.1
2014-Oct-09 17:33N 52°04' E 003°54'9 9.1
2014-Oct-09 16:33N 51°59' E 004°06'1010.0
2014-Oct-09 15:33N 51°54' E 004°20'3 3.0
2014-Oct-09 14:29N 51°53' E 004°25'0 0.0
2014-Oct-09 13:31N 51°53' E 004°25'0 0.0
2014-Oct-09 12:31N 51°53' E 004°25'0 0.0
2014-Oct-09 11:31N 51°53' E 004°25'0 0.0
2014-Oct-09 10:33N 51°53' E 004°25'0 0.0
2014-Oct-09 09:30N 51°53' E 004°25'0 0.0
2014-Oct-09 08:32N 51°53' E 004°25'0 0.0
2014-Oct-09 07:29N 51°53' E 004°25'0 0.0
2014-Oct-09 06:29N 51°53' E 004°25'0 0.0
2014-Oct-09 05:28N 51°53' E 004°25'0 0.0
2014-Oct-09 04:28N 51°53' E 004°25'0 0.2
2014-Oct-09 03:33N 51°53' E 004°25'0 0.0
2014-Oct-09 02:29N 51°53' E 004°25'0 0.0
2014-Oct-09 01:32N 51°53' E 004°25'0 0.0
2014-Oct-09 00:29N 51°53' E 004°25'0 0.0
2014-Oct-08 23:31N 51°53' E 004°25'0 0.0
2014-Oct-08 22:16N 51°53' E 004°25'0 0.0
2014-Oct-08 21:31N 51°53' E 004°25'0 0.0
2014-Oct-08 20:27N 51°53' E 004°25'0 0.0
2014-Oct-08 19:24N 51°53' E 004°25'0 0.0
2014-Oct-08 18:26N 51°53' E 004°25'0 0.0
2014-Oct-08 17:32N 51°53' E 004°25'0 0.0
2014-Oct-08 16:31N 51°53' E 004°25'0 0.0
2014-Oct-08 15:31N 51°53' E 004°25'0 0.0
2014-Oct-08 14:33N 51°53' E 004°25'8 8.3
2014-Oct-08 13:33N 51°56' E 004°12'1212.0
2014-Oct-08 12:33N 52°00' E 003°54'26 3.2
2014-Oct-08 04:30N 51°46' E 003°20'0 0.0
2014-Oct-08 02:32N 51°46' E 003°20'0 0.0
2014-Oct-08 00:22N 51°46' E 003°20'0 0.0
2014-Oct-07 22:21N 51°46' E 003°20'0 0.0
2014-Oct-07 21:33N 51°46' E 003°20'0 0.0
2014-Oct-07 19:29N 51°46' E 003°20'0 0.1
2014-Oct-07 18:23N 51°46' E 003°20'0 0.0
2014-Oct-07 17:10N 51°46' E 003°20'0 0.0
2014-Oct-07 16:25N 51°46' E 003°20'0 0.0
2014-Oct-07 14:33N 51°46' E 003°20'0 0.0
2014-Oct-07 09:04N 51°46' E 003°20'0 0.0
2014-Oct-07 08:33N 51°46' E 003°20'0 0.1
2014-Oct-07 07:33N 51°46' E 003°20'0 0.0
2014-Oct-07 06:33N 51°46' E 003°20'0 0.1
2014-Oct-07 05:32N 51°46' E 003°20'0 0.0
2014-Oct-07 04:32N 51°46' E 003°20'0 0.0
2014-Oct-07 03:22N 51°46' E 003°20'0 0.0
2014-Oct-06 20:13N 51°46' E 003°20'0 0.0
2014-Oct-06 07:28N 51°46' E 003°20'0 0.0
2014-Oct-06 00:19N 51°46' E 003°20'0 0.0
2014-Oct-05 23:31N 51°46' E 003°20'34 2.0
2014-Oct-05 06:33N 51°38' E 002°27'1010.4
2014-Oct-05 05:33N 51°30' E 002°15'9 8.6
2014-Oct-05 04:33N 51°24' E 002°06'8 8.5
2014-Oct-05 03:34N 51°18' E 001°56'8 8.2
2014-Oct-05 02:33N 51°12' E 001°48'8 8.3
2014-Oct-05 01:33N 51°05' E 001°40'9 9.0
2014-Oct-05 00:34N 50°58' E 001°32'48 9.4
2014-Oct-04 19:27N 50°24' E 000°38'5210.5
2014-Oct-04 14:30N 49°41' W 000°09'9 9.3
2014-Oct-04 13:33N 49°33' W 000°12'4 3.0
2014-Oct-04 12:17N 49°29' W 000°09'0 0.0
2014-Oct-04 11:32N 49°29' W 000°10'0 0.0
2014-Oct-04 10:28N 49°29' W 000°10'0 0.0
2014-Oct-04 09:04N 49°29' W 000°10'0 0.0
2014-Oct-04 08:22N 49°29' W 000°09'0 0.0
2014-Oct-04 07:27N 49°29' W 000°09'0 0.0
2014-Oct-04 06:09N 49°29' W 000°09'0 0.0
2014-Oct-04 05:11N 49°29' W 000°09'0 0.0
2014-Oct-04 04:29N 49°29' W 000°09'0 0.0
2014-Oct-04 03:10N 49°29' W 000°09'0 0.0
2014-Oct-04 02:31N 49°29' W 000°09'0 0.0
2014-Oct-04 01:06N 49°29' W 000°10'0 0.0
2014-Oct-04 00:33N 49°29' W 000°10'0 0.0
2014-Oct-03 22:29N 49°29' W 000°10'0 0.0
2014-Oct-03 21:29N 49°29' W 000°10'0 0.0
2014-Oct-03 18:28N 49°29' W 000°10'0 0.0
2014-Oct-03 17:33N 49°29' W 000°10'0 0.0
2014-Oct-03 16:33N 49°29' W 000°10'0 0.0
2014-Oct-03 15:32N 49°29' W 000°10'0 0.0
2014-Oct-03 14:32N 49°29' W 000°10'0 0.0
2014-Oct-03 13:25N 49°29' W 000°10'0 0.0
2014-Oct-03 12:31N 49°29' W 000°10'0 0.0
2014-Oct-03 11:31N 49°29' W 000°10'0 0.0
2014-Oct-03 10:30N 49°29' W 000°10'0 0.0
2014-Oct-03 09:33N 49°29' W 000°10'0 0.0
2014-Oct-03 08:29N 49°29' W 000°10'0 0.0
2014-Oct-03 07:32N 49°29' W 000°10'0 0.0
2014-Oct-03 06:28N 49°29' W 000°10'0 0.0
2014-Oct-03 05:28N 49°29' W 000°09'0 0.0
2014-Oct-03 04:34N 49°29' W 000°09'0 0.0
2014-Oct-03 03:33N 49°29' W 000°09'0 0.0
2014-Oct-03 02:33N 49°29' W 000°09'0 0.0
2014-Oct-03 01:32N 49°29' W 000°10'0 0.0
2014-Oct-03 00:32N 49°29' W 000°10'0 0.0
2014-Oct-02 23:31N 49°29' W 000°10'0 0.0
2014-Oct-02 22:31N 49°29' W 000°10'0 0.0
2014-Oct-02 21:30N 49°29' W 000°10'0 0.0
2014-Oct-02 20:21N 49°29' W 000°10'0 0.0
2014-Oct-02 19:30N 49°29' W 000°10'0 0.0
2014-Oct-02 18:32N 49°29' W 000°10'0 0.0
2014-Oct-02 17:32N 49°29' W 000°10'0 0.0
2014-Oct-02 16:31N 49°29' W 000°10'0 0.0
2014-Oct-02 15:22N 49°29' W 000°10'  

Dump ship's entire track history